createdAt,value
2022-08-20T00:02:06.745Z,18.33
2022-08-20T00:06:59.997Z,21.97
2022-08-20T00:11:52.211Z,20.43
2022-08-20T00:16:44.507Z,22.87
2022-08-20T00:21:37.395Z,18.60
2022-08-20T00:26:29.690Z,20.83
2022-08-20T00:31:24.114Z,21.23
2022-08-20T00:36:17.691Z,18.80
2022-08-20T00:41:15.324Z,23.00
2022-08-20T00:46:17.361Z,22.57
2022-08-20T00:51:21.435Z,21.60
2022-08-20T00:56:15.312Z,23.20
2022-08-20T01:01:09.605Z,24.33
2022-08-20T01:06:02.028Z,27.40
2022-08-20T01:11:10.482Z,25.10
2022-08-20T01:16:04.592Z,23.97
2022-08-20T01:21:00.219Z,27.40
2022-08-20T01:26:08.809Z,27.70
2022-08-20T01:31:01.201Z,27.47
2022-08-20T01:35:54.097Z,26.47
2022-08-20T01:40:52.175Z,29.80
2022-08-20T01:45:44.950Z,28.23
2022-08-20T01:50:41.862Z,32.67
2022-08-20T01:55:34.065Z,32.83
2022-08-20T02:06:56.462Z,35.63
2022-08-20T02:11:49.735Z,38.30
2022-08-20T02:16:44.261Z,33.67
2022-08-20T02:21:51.871Z,33.77
2022-08-20T02:26:44.642Z,36.77
2022-08-20T02:31:38.262Z,36.90
2022-08-20T02:36:50.573Z,36.63
2022-08-20T02:41:43.085Z,39.40
2022-08-20T02:46:35.821Z,39.53
2022-08-20T02:51:30.542Z,39.90
2022-08-20T02:56:23.060Z,40.57
2022-08-20T03:01:20.108Z,39.80
2022-08-20T03:06:14.781Z,40.37
2022-08-20T03:11:07.606Z,39.23
2022-08-20T03:16:02.277Z,36.33
2022-08-20T03:20:54.611Z,34.53
2022-08-20T03:25:48.584Z,31.00
2022-08-20T03:30:42.160Z,29.93
2022-08-20T03:35:36.116Z,33.17
2022-08-20T03:40:32.889Z,36.33
2022-08-20T03:45:27.186Z,37.63
2022-08-20T03:50:23.865Z,37.67
2022-08-20T03:55:16.522Z,34.43
2022-08-20T04:00:09.288Z,33.77
2022-08-20T04:05:04.612Z,34.47
2022-08-20T04:09:57.612Z,33.20
2022-08-20T04:14:50.534Z,33.43
2022-08-20T04:19:43.632Z,28.17
2022-08-20T04:24:37.384Z,29.77
2022-08-20T04:29:31.999Z,27.27
2022-08-20T04:34:25.161Z,27.37
2022-08-20T04:39:17.942Z,24.37
2022-08-20T04:44:11.229Z,19.23
2022-08-20T04:49:04.581Z,22.70
2022-08-20T04:53:57.826Z,21.60
2022-08-20T04:58:51.358Z,18.97
2022-08-20T05:03:44.007Z,17.67
2022-08-20T05:08:38.794Z,18.33
2022-08-20T05:13:31.152Z,18.67
2022-08-20T05:18:26.498Z,20.50
2022-08-20T05:23:20.278Z,19.10
2022-08-20T05:28:18.607Z,19.93
2022-08-20T05:33:14.085Z,21.60
2022-08-20T05:38:10.472Z,22.43
2022-08-20T05:43:04.497Z,24.63
2022-08-20T05:47:57.500Z,24.77
2022-08-20T05:52:49.999Z,26.43
2022-08-20T05:57:42.737Z,30.73
2022-08-20T06:02:53.648Z,31.93
2022-08-20T06:07:46.373Z,28.80
2022-08-20T06:12:38.873Z,27.73
2022-08-20T06:17:39.419Z,32.90
2022-08-20T06:22:32.781Z,53.97
2022-08-20T06:27:25.230Z,22.20
2022-08-20T06:32:28.820Z,24.23
2022-08-20T06:37:31.203Z,26.03
2022-08-20T06:42:23.966Z,25.90
2022-08-20T06:47:21.141Z,30.67
2022-08-20T06:52:17.422Z,25.13
2022-08-20T06:57:10.126Z,27.23
2022-08-20T07:02:02.737Z,30.90
2022-08-20T07:06:55.722Z,31.17
2022-08-20T07:11:49.408Z,33.50
2022-08-20T07:16:41.903Z,34.80
2022-08-20T07:21:35.267Z,37.17
2022-08-20T07:26:29.162Z,33.90
2022-08-20T07:31:40.014Z,35.73
2022-08-20T07:36:34.809Z,37.77
2022-08-20T07:41:27.238Z,35.20
2022-08-20T07:46:21.814Z,39.07
2022-08-20T07:51:17.947Z,34.73
2022-08-20T07:56:16.228Z,35.03
2022-08-20T08:01:12.026Z,33.17
2022-08-20T08:06:04.746Z,35.60
2022-08-20T08:11:00.908Z,34.77
2022-08-20T08:15:59.448Z,33.73
2022-08-20T08:20:53.806Z,33.00
2022-08-20T08:25:46.145Z,33.80
2022-08-20T08:30:43.320Z,34.67
2022-08-20T08:35:38.446Z,34.70
2022-08-20T08:40:34.580Z,34.30
2022-08-20T08:45:45.312Z,35.10
2022-08-20T08:50:54.140Z,34.00
2022-08-20T08:55:47.177Z,38.17
2022-08-20T09:00:48.779Z,37.17
2022-08-20T09:05:55.148Z,39.40
2022-08-20T09:10:47.430Z,37.17
2022-08-20T09:15:40.178Z,37.70
2022-08-20T09:20:32.522Z,36.03
2022-08-20T09:25:25.392Z,36.33
2022-08-20T09:30:18.592Z,35.33
2022-08-20T09:35:11.252Z,36.90
2022-08-20T09:40:06.384Z,35.27
2022-08-20T09:45:02.698Z,37.33
2022-08-20T09:49:55.887Z,33.40
2022-08-20T09:54:48.358Z,35.73
2022-08-20T09:59:43.596Z,31.00
2022-08-20T10:04:36.085Z,30.20
2022-08-20T10:09:28.744Z,30.37
2022-08-20T10:14:23.917Z,30.40
2022-08-20T10:19:16.869Z,30.77
2022-08-20T10:24:09.115Z,29.47
2022-08-20T10:29:01.534Z,33.00
2022-08-20T10:33:53.844Z,30.30
2022-08-20T10:38:46.510Z,32.27
2022-08-20T10:43:38.786Z,31.47
2022-08-20T10:48:31.390Z,32.90
2022-08-20T10:53:23.807Z,31.13
2022-08-20T10:58:16.133Z,31.43
2022-08-20T11:03:09.025Z,32.50
2022-08-20T11:08:04.088Z,30.43
2022-08-20T11:12:57.055Z,31.90
2022-08-20T11:17:49.527Z,31.90
2022-08-20T11:22:41.799Z,30.83
2022-08-20T11:27:44.408Z,33.33
2022-08-20T11:32:39.057Z,32.40
2022-08-20T11:37:31.762Z,32.57
2022-08-20T11:42:24.079Z,31.63
2022-08-20T11:47:26.321Z,31.60
2022-08-20T11:52:18.674Z,36.80
2022-08-20T11:57:11.417Z,35.93
2022-08-20T12:02:03.819Z,36.30
2022-08-20T12:06:56.586Z,33.53
2022-08-20T12:11:52.772Z,35.33
2022-08-20T12:16:45.146Z,38.00
2022-08-20T12:21:37.428Z,38.50
2022-08-20T12:26:29.657Z,35.07
2022-08-20T12:31:21.970Z,35.73
2022-08-20T12:36:15.251Z,38.43
2022-08-20T12:41:07.479Z,37.87
2022-08-20T12:45:59.792Z,38.17
2022-08-20T12:50:52.955Z,41.10
2022-08-20T12:56:41.951Z,40.30
2022-08-20T13:02:49.009Z,38.67
2022-08-20T13:08:57.246Z,39.63
2022-08-20T13:15:04.459Z,37.50
2022-08-20T13:21:11.578Z,36.57
2022-08-20T13:27:18.774Z,35.27
2022-08-20T13:33:26.109Z,33.37
2022-08-20T13:39:33.404Z,24.10
2022-08-20T13:45:40.147Z,22.63
2022-08-20T13:51:47.103Z,24.90
2022-08-20T13:58:00.301Z,30.23
2022-08-20T14:04:07.408Z,36.33
2022-08-20T14:10:14.600Z,30.03
2022-08-20T14:16:27.406Z,16.73
2022-08-20T14:22:37.151Z,14.30
2022-08-20T14:28:43.995Z,16.00
2022-08-20T14:34:51.316Z,17.03
2022-08-20T14:40:58.439Z,17.03
2022-08-20T14:47:05.531Z,17.47
2022-08-20T14:52:58.133Z,18.40
2022-08-20T14:57:51.083Z,21.07
2022-08-20T15:02:43.666Z,20.20
2022-08-20T15:07:40.474Z,21.07
2022-08-20T15:12:35.415Z,24.13
2022-08-20T15:17:30.109Z,24.90
2022-08-20T15:22:23.604Z,25.30
2022-08-20T15:27:22.658Z,24.43
2022-08-20T15:32:16.013Z,26.50
2022-08-20T15:37:20.031Z,28.17
2022-08-20T15:42:13.191Z,28.53
2022-08-20T15:47:31.561Z,26.43
2022-08-20T15:52:26.449Z,28.30
2022-08-20T15:57:53.510Z,26.90
2022-08-20T16:03:29.142Z,24.83
2022-08-20T16:09:36.243Z,31.73
2022-08-20T16:15:46.298Z,28.73
2022-08-20T16:21:56.736Z,29.47
2022-08-20T16:28:04.811Z,27.27
2022-08-20T16:34:34.470Z,25.63
2022-08-20T16:40:41.749Z,23.97
2022-08-20T16:46:48.943Z,27.67
2022-08-20T16:52:56.432Z,26.03
2022-08-20T16:59:04.425Z,25.23
2022-08-20T17:05:12.784Z,24.50
2022-08-20T17:11:20.141Z,29.47
2022-08-20T17:17:27.487Z,30.77
2022-08-20T17:23:49.162Z,26.87
2022-08-20T17:30:03.313Z,30.77
2022-08-20T17:36:10.290Z,26.10
2022-08-20T17:42:17.380Z,26.87
2022-08-20T17:48:25.843Z,28.27
2022-08-20T17:54:34.062Z,32.50
2022-08-20T18:00:41.194Z,35.40
2022-08-20T18:06:32.108Z,30.67
2022-08-20T18:11:42.774Z,29.80
2022-08-20T18:16:50.999Z,30.60
2022-08-20T18:21:57.614Z,30.17
2022-08-20T18:26:55.031Z,29.20
2022-08-20T18:31:56.516Z,33.80
2022-08-20T18:36:57.668Z,34.20
2022-08-20T18:42:10.037Z,36.37
2022-08-20T18:47:04.184Z,37.93
2022-08-20T18:51:57.779Z,38.87
2022-08-20T18:57:06.954Z,38.60
2022-08-20T19:01:59.427Z,36.87
2022-08-20T19:07:03.120Z,35.13
2022-08-20T19:12:14.746Z,32.30
2022-08-20T19:17:09.983Z,33.73
2022-08-20T19:22:03.732Z,34.67
2022-08-20T19:27:08.488Z,32.17
2022-08-20T19:32:03.838Z,32.20
2022-08-20T19:37:09.058Z,33.43
2022-08-20T19:42:28.319Z,30.80
2022-08-20T19:47:32.237Z,32.23
2022-08-20T19:52:57.001Z,36.10
2022-08-20T19:57:54.926Z,32.27
2022-08-20T20:02:47.908Z,31.43
2022-08-20T20:07:52.621Z,30.83
2022-08-20T20:12:47.680Z,32.90
2022-08-20T20:17:40.645Z,31.27
2022-08-20T20:22:46.897Z,32.20
2022-08-20T20:27:39.525Z,31.33
2022-08-20T20:32:34.285Z,37.67
2022-08-20T20:37:49.506Z,36.37
2022-08-20T20:42:43.875Z,35.30
2022-08-20T20:47:36.836Z,34.50
2022-08-20T20:52:36.040Z,33.70
2022-08-20T20:57:37.940Z,34.47
2022-08-20T21:02:31.637Z,33.53
2022-08-20T21:07:25.286Z,38.83
2022-08-20T21:12:19.053Z,39.63
2022-08-20T21:17:15.471Z,40.13
2022-08-20T21:22:09.304Z,36.40
2022-08-20T21:27:03.828Z,40.40
2022-08-20T21:31:57.146Z,35.30
2022-08-20T21:36:50.124Z,41.67
2022-08-20T21:41:44.223Z,39.30
2022-08-20T21:46:36.496Z,35.93
2022-08-20T21:51:28.765Z,33.00
2022-08-20T21:56:26.348Z,37.87
2022-08-20T22:01:18.577Z,36.07
2022-08-20T22:06:14.776Z,39.57
2022-08-20T22:11:10.130Z,44.27
2022-08-20T22:16:08.478Z,40.07
2022-08-20T22:21:01.107Z,40.47
2022-08-20T22:25:53.448Z,40.00
2022-08-20T22:30:45.931Z,41.00
2022-08-20T22:35:45.106Z,45.87
2022-08-20T22:40:37.317Z,40.90
2022-08-20T22:45:29.890Z,51.30
2022-08-20T22:50:24.435Z,44.07
2022-08-20T22:55:17.228Z,38.60
2022-08-20T23:00:15.598Z,34.40
2022-08-20T23:05:13.928Z,36.97
2022-08-20T23:10:06.605Z,39.60
2022-08-20T23:14:58.967Z,34.00
2022-08-20T23:19:52.035Z,36.20
2022-08-20T23:24:44.954Z,33.47
2022-08-20T23:29:37.424Z,32.47
2022-08-20T23:34:29.714Z,37.40
2022-08-20T23:39:25.001Z,39.90
2022-08-20T23:44:25.430Z,37.07
2022-08-20T23:49:19.318Z,35.43
2022-08-20T23:54:11.656Z,44.10
2022-08-20T23:59:05.295Z,43.97
